sensor_id;sensor_type;location;lat;lon;timestamp;P1;P2;P0
55076;PMS7003;40971;44.702;11.030;2023-08-31T00:08:11;0.00;0.00;0.00
55076;PMS7003;40971;44.702;11.030;2023-08-31T00:18:14;0.00;0.00;0.00
55076;PMS7003;40971;44.702;11.030;2023-08-31T00:28:16;1.00;1.00;0.00
55076;PMS7003;40971;44.702;11.030;2023-08-31T00:38:18;1.00;1.00;0.00
55076;PMS7003;40971;44.702;11.030;2023-08-31T00:48:20;9.00;9.00;6.00
55076;PMS7003;40971;44.702;11.030;2023-08-31T00:58:21;2.50;2.50;2.00
55076;PMS7003;40971;44.702;11.030;2023-08-31T01:18:39;2.00;2.00;2.00
55076;PMS7003;40971;44.702;11.030;2023-08-31T01:28:40;1.00;1.00;1.00
55076;PMS7003;40971;44.702;11.030;2023-08-31T01:38:42;2.00;2.00;2.00
55076;PMS7003;40971;44.702;11.030;2023-08-31T01:48:47;2.00;2.00;2.00
55076;PMS7003;40971;44.702;11.030;2023-08-31T01:58:48;1.33;1.33;1.00
55076;PMS7003;40971;44.702;11.030;2023-08-31T02:08:49;2.00;2.00;1.50
55076;PMS7003;40971;44.702;11.030;2023-08-31T02:18:50;2.00;2.00;1.00
55076;PMS7003;40971;44.702;11.030;2023-08-31T02:28:51;4.00;4.00;2.00
55076;PMS7003;40971;44.702;11.030;2023-08-31T02:38:52;2.00;2.00;1.00
55076;PMS7003;40971;44.702;11.030;2023-08-31T02:48:53;2.00;2.00;2.00
55076;PMS7003;40971;44.702;11.030;2023-08-31T02:58:54;4.00;4.00;2.00
55076;PMS7003;40971;44.702;11.030;2023-08-31T03:08:56;4.67;4.67;4.00
55076;PMS7003;40971;44.702;11.030;2023-08-31T03:18:56;4.50;4.50;4.00
55076;PMS7003;40971;44.702;11.030;2023-08-31T03:28:57;4.67;4.00;2.00
55076;PMS7003;40971;44.702;11.030;2023-08-31T03:38:59;5.00;5.00;4.50
55076;PMS7003;40971;44.702;11.030;2023-08-31T03:49:00;6.00;6.00;5.00
55076;PMS7003;40971;44.702;11.030;2023-08-31T03:59:02;6.00;6.00;5.00
55076;PMS7003;40971;44.702;11.030;2023-08-31T04:09:04;4.50;4.50;4.00
55076;PMS7003;40971;44.702;11.030;2023-08-31T04:19:06;6.00;6.00;5.00
55076;PMS7003;40971;44.702;11.030;2023-08-31T04:29:08;14.83;13.17;9.00
55076;PMS7003;40971;44.702;11.030;2023-08-31T04:39:09;8.00;8.00;6.00
55076;PMS7003;40971;44.702;11.030;2023-08-31T04:49:11;14.00;12.00;8.00
55076;PMS7003;40971;44.702;11.030;2023-08-31T04:59:12;8.00;8.00;8.00
55076;PMS7003;40971;44.702;11.030;2023-08-31T05:09:17;9.00;9.00;8.17
55076;PMS7003;40971;44.702;11.030;2023-08-31T05:19:19;13.00;13.00;11.00
55076;PMS7003;40971;44.702;11.030;2023-08-31T05:29:21;12.67;12.67;9.67
55076;PMS7003;40971;44.702;11.030;2023-08-31T05:39:25;13.43;13.43;10.43
55076;PMS7003;40971;44.702;11.030;2023-08-31T05:49:28;14.43;13.86;10.86
55076;PMS7003;40971;44.702;11.030;2023-08-31T05:59:30;13.67;13.67;11.33
55076;PMS7003;40971;44.702;11.030;2023-08-31T06:09:31;12.33;12.33;11.67
55076;PMS7003;40971;44.702;11.030;2023-08-31T06:19:32;15.33;15.33;12.00
55076;PMS7003;40971;44.702;11.030;2023-08-31T06:29:34;17.00;17.00;14.33
55076;PMS7003;40971;44.702;11.030;2023-08-31T06:39:35;15.33;15.33;11.33
55076;PMS7003;40971;44.702;11.030;2023-08-31T06:49:38;13.00;13.00;10.57
55076;PMS7003;40971;44.702;11.030;2023-08-31T06:59:41;12.57;12.57;9.57
55076;PMS7003;40971;44.702;11.030;2023-08-31T07:09:45;13.00;13.00;9.57
55076;PMS7003;40971;44.702;11.030;2023-08-31T07:19:48;14.00;14.00;11.00
55076;PMS7003;40971;44.702;11.030;2023-08-31T07:29:49;15.00;14.00;11.00
55076;PMS7003;40971;44.702;11.030;2023-08-31T07:39:51;16.00;16.00;12.00
55076;PMS7003;40971;44.702;11.030;2023-08-31T07:49:53;19.67;19.67;15.33
55076;PMS7003;40971;44.702;11.030;2023-08-31T07:59:56;22.00;21.00;15.67
55076;PMS7003;40971;44.702;11.030;2023-08-31T08:09:58;24.33;24.33;19.00
55076;PMS7003;40971;44.702;11.030;2023-08-31T08:20:01;20.50;20.50;14.00
55076;PMS7003;40971;44.702;11.030;2023-08-31T08:30:05;18.00;16.50;14.00
55076;PMS7003;40971;44.702;11.030;2023-08-31T08:40:09;21.00;21.00;16.00
55076;PMS7003;40971;44.702;11.030;2023-08-31T08:50:12;20.67;20.67;16.00
55076;PMS7003;40971;44.702;11.030;2023-08-31T09:00:15;16.00;15.67;11.00
55076;PMS7003;40971;44.702;11.030;2023-08-31T09:10:16;15.00;15.00;13.00
55076;PMS7003;40971;44.702;11.030;2023-08-31T09:20:20;20.38;18.25;12.88
55076;PMS7003;40971;44.702;11.030;2023-08-31T09:30:21;16.67;16.67;13.00
55076;PMS7003;40971;44.702;11.030;2023-08-31T09:40:24;20.67;20.67;16.33
55076;PMS7003;40971;44.702;11.030;2023-08-31T09:50:26;17.00;15.50;13.00
55076;PMS7003;40971;44.702;11.030;2023-08-31T10:00:31;16.50;16.50;13.50
55076;PMS7003;40971;44.702;11.030;2023-08-31T10:10:34;18.33;17.33;13.33
55076;PMS7003;40971;44.702;11.030;2023-08-31T10:20:36;14.33;13.67;11.00
55076;PMS7003;40971;44.702;11.030;2023-08-31T10:30:38;8.80;8.80;7.80
55076;PMS7003;40971;44.702;11.030;2023-08-31T10:40:39;10.00;10.00;9.00
55076;PMS7003;40971;44.702;11.030;2023-08-31T10:50:42;7.83;7.83;6.50
55076;PMS7003;40971;44.702;11.030;2023-08-31T11:00:47;9.33;8.00;7.00
55076;PMS7003;40971;44.702;11.030;2023-08-31T11:10:54;6.17;5.67;4.83
55076;PMS7003;40971;44.702;11.030;2023-08-31T11:20:55;8.67;8.67;6.67
55076;PMS7003;40971;44.702;11.030;2023-08-31T11:30:57;8.00;8.00;6.50
55076;PMS7003;40971;44.702;11.030;2023-08-31T11:40:59;5.67;5.67;4.67
55076;PMS7003;40971;44.702;11.030;2023-08-31T11:51:03;6.17;5.83;4.33
55076;PMS7003;40971;44.702;11.030;2023-08-31T12:01:05;5.83;5.17;4.17
55076;PMS7003;40971;44.702;11.030;2023-08-31T12:11:08;6.00;6.00;5.00
55076;PMS7003;40971;44.702;11.030;2023-08-31T12:21:09;8.67;7.00;6.00
55076;PMS7003;40971;44.702;11.030;2023-08-31T12:31:10;6.00;6.00;4.00
55076;PMS7003;40971;44.702;11.030;2023-08-31T12:41:12;5.60;5.60;4.20
55076;PMS7003;40971;44.702;11.030;2023-08-31T12:51:16;4.50;4.50;4.17
55076;PMS7003;40971;44.702;11.030;2023-08-31T13:01:17;5.00;5.00;4.00
55076;PMS7003;40971;44.702;11.030;2023-08-31T13:11:19;6.00;4.50;3.00
55076;PMS7003;40971;44.702;11.030;2023-08-31T13:21:23;4.50;4.00;3.00
55076;PMS7003;40971;44.702;11.030;2023-08-31T13:31:26;4.00;4.00;3.80
55076;PMS7003;40971;44.702;11.030;2023-08-31T13:41:31;4.50;4.50;3.50
55076;PMS7003;40971;44.702;11.030;2023-08-31T13:51:33;4.00;4.00;3.60
55076;PMS7003;40971;44.702;11.030;2023-08-31T14:01:35;4.60;4.40;3.20
55076;PMS7003;40971;44.702;11.030;2023-08-31T14:11:39;5.33;5.33;4.00
55076;PMS7003;40971;44.702;11.030;2023-08-31T14:21:41;3.80;3.80;3.20
55076;PMS7003;40971;44.702;11.030;2023-08-31T14:31:43;5.00;5.00;5.00
55076;PMS7003;40971;44.702;11.030;2023-08-31T14:41:47;4.33;4.33;3.17
55076;PMS7003;40971;44.702;11.030;2023-08-31T14:51:48;6.67;6.67;6.00
55076;PMS7003;40971;44.702;11.030;2023-08-31T15:01:51;3.67;3.67;3.67
55076;PMS7003;40971;44.702;11.030;2023-08-31T15:11:53;6.17;5.00;4.67
55076;PMS7003;40971;44.702;11.030;2023-08-31T15:21:56;5.33;5.33;4.50
55076;PMS7003;40971;44.702;11.030;2023-08-31T15:31:58;6.00;5.00;4.67
55076;PMS7003;40971;44.702;11.030;2023-08-31T15:42:01;5.00;5.00;3.83
55076;PMS7003;40971;44.702;11.030;2023-08-31T15:52:06;6.17;5.17;4.17
55076;PMS7003;40971;44.702;11.030;2023-08-31T16:02:08;5.00;5.00;4.00
55076;PMS7003;40971;44.702;11.030;2023-08-31T16:12:12;4.00;4.00;3.50
55076;PMS7003;40971;44.702;11.030;2023-08-31T16:22:15;4.00;4.00;3.33
55076;PMS7003;40971;44.702;11.030;2023-08-31T16:32:18;4.00;4.00;3.33
55076;PMS7003;40971;44.702;11.030;2023-08-31T16:42:20;5.00;5.00;4.00
55076;PMS7003;40971;44.702;11.030;2023-08-31T16:52:22;5.00;5.00;4.00
55076;PMS7003;40971;44.702;11.030;2023-08-31T17:02:25;7.67;7.67;5.83
55076;PMS7003;40971;44.702;11.030;2023-08-31T17:12:27;9.00;7.50;6.00
55076;PMS7003;40971;44.702;11.030;2023-08-31T17:22:29;4.80;4.80;4.20
55076;PMS7003;40971;44.702;11.030;2023-08-31T17:32:31;7.40;6.60;4.80
55076;PMS7003;40971;44.702;11.030;2023-08-31T17:42:35;6.33;6.33;5.83
55076;PMS7003;40971;44.702;11.030;2023-08-31T17:52:37;8.50;8.50;6.00
55076;PMS7003;40971;44.702;11.030;2023-08-31T18:02:41;6.33;6.33;5.33
55076;PMS7003;40971;44.702;11.030;2023-08-31T18:12:44;4.83;4.83;3.50
55076;PMS7003;40971;44.702;11.030;2023-08-31T18:22:47;4.50;4.50;4.00
55076;PMS7003;40971;44.702;11.030;2023-08-31T18:32:50;4.40;4.40;3.80
55076;PMS7003;40971;44.702;11.030;2023-08-31T18:42:52;6.00;5.00;4.20
55076;PMS7003;40971;44.702;11.030;2023-08-31T18:52:54;7.80;7.80;5.60
55076;PMS7003;40971;44.702;11.030;2023-08-31T19:02:56;5.20;5.20;4.40
55076;PMS7003;40971;44.702;11.030;2023-08-31T19:12:59;8.00;8.00;5.00
55076;PMS7003;40971;44.702;11.030;2023-08-31T19:23:09;4.00;4.00;4.00
55076;PMS7003;40971;44.702;11.030;2023-08-31T19:33:11;6.00;6.00;4.00
55076;PMS7003;40971;44.702;11.030;2023-08-31T19:43:13;7.20;6.80;6.20
55076;PMS7003;40971;44.702;11.030;2023-08-31T19:53:16;6.67;6.67;5.00
55076;PMS7003;40971;44.702;11.030;2023-08-31T20:03:17;5.00;5.00;4.00
55076;PMS7003;40971;44.702;11.030;2023-08-31T20:13:20;5.00;5.00;4.00
55076;PMS7003;40971;44.702;11.030;2023-08-31T20:23:21;6.00;6.00;4.00
55076;PMS7003;40971;44.702;11.030;2023-08-31T20:33:23;9.00;9.00;8.00
55076;PMS7003;40971;44.702;11.030;2023-08-31T20:43:26;7.00;7.00;5.00
55076;PMS7003;40971;44.702;11.030;2023-08-31T20:53:28;6.60;6.60;6.00
55076;PMS7003;40971;44.702;11.030;2023-08-31T21:03:29;7.00;7.00;6.00
55076;PMS7003;40971;44.702;11.030;2023-08-31T21:13:31;8.80;8.80;7.60
55076;PMS7003;40971;44.702;11.030;2023-08-31T21:23:40;8.83;8.83;7.50
55076;PMS7003;40971;44.702;11.030;2023-08-31T21:33:42;8.00;8.00;7.00
55076;PMS7003;40971;44.702;11.030;2023-08-31T21:43:43;8.00;7.00;7.00
55076;PMS7003;40971;44.702;11.030;2023-08-31T21:53:45;11.00;11.00;8.33
55076;PMS7003;40971;44.702;11.030;2023-08-31T22:03:47;10.00;9.67;8.17
55076;PMS7003;40971;44.702;11.030;2023-08-31T22:13:49;8.80;8.80;7.80
55076;PMS7003;40971;44.702;11.030;2023-08-31T22:23:51;10.80;10.40;7.60
55076;PMS7003;40971;44.702;11.030;2023-08-31T22:33:53;16.33;16.33;11.00
55076;PMS7003;40971;44.702;11.030;2023-08-31T22:43:54;15.67;15.67;12.33
55076;PMS7003;40971;44.702;11.030;2023-08-31T22:53:56;26.40;22.00;16.80
55076;PMS7003;40971;44.702;11.030;2023-08-31T23:03:58;16.60;16.60;12.40
55076;PMS7003;40971;44.702;11.030;2023-08-31T23:14:00;14.67;14.67;11.67
55076;PMS7003;40971;44.702;11.030;2023-08-31T23:24:01;23.00;23.00;18.00
55076;PMS7003;40971;44.702;11.030;2023-08-31T23:34:03;20.00;20.00;16.50
55076;PMS7003;40971;44.702;11.030;2023-08-31T23:44:07;20.50;19.75;16.63
55076;PMS7003;40971;44.702;11.030;2023-08-31T23:54:09;21.50;21.50;16.50
